createdAt,value
2022-12-19T00:03:25.768Z,-3.47
2022-12-19T00:08:28.309Z,-3.44
2022-12-19T00:13:31.771Z,-3.38
2022-12-19T00:18:33.644Z,-3.32
2022-12-19T00:23:36.056Z,-3.31
2022-12-19T00:28:38.684Z,-3.31
2022-12-19T00:33:43.585Z,-3.24
2022-12-19T00:38:43.992Z,-3.21
2022-12-19T00:43:46.572Z,-3.19
2022-12-19T00:48:55.700Z,-3.14
2022-12-19T00:58:55.079Z,-3.12
2022-12-19T01:04:27.029Z,-3.11
2022-12-19T01:09:00.493Z,-3.07
2022-12-19T01:14:03.260Z,-3.05
2022-12-19T01:19:05.587Z,-3.03
2022-12-19T01:24:08.267Z,-2.99
2022-12-19T01:29:10.989Z,-3
2022-12-19T01:34:13.648Z,-2.95
2022-12-19T01:39:16.372Z,-2.9
2022-12-19T01:44:19.282Z,-2.85
2022-12-19T01:49:22.987Z,-2.8
2022-12-19T01:54:24.758Z,-2.72
2022-12-19T01:59:27.298Z,-2.74
2022-12-19T02:04:32.212Z,-2.68
2022-12-19T02:09:32.503Z,-2.68
2022-12-19T02:14:35.418Z,-2.68
2022-12-19T02:19:37.831Z,-2.7
2022-12-19T02:24:40.571Z,-2.74
2022-12-19T02:29:43.360Z,-2.76
2022-12-19T02:34:45.871Z,-2.83
2022-12-19T02:39:52.811Z,-2.87
2022-12-19T02:44:55.660Z,-2.86
2022-12-19T02:49:58.403Z,-2.88
2022-12-19T02:55:00.970Z,-2.95
2022-12-19T03:00:03.511Z,-2.93
2022-12-19T03:05:06.101Z,-2.95
2022-12-19T03:10:08.775Z,-2.88
2022-12-19T03:15:11.426Z,-2.84
2022-12-19T03:20:13.985Z,-2.83
2022-12-19T03:25:16.654Z,-2.78
2022-12-19T03:30:19.465Z,-2.76
2022-12-19T03:35:25.867Z,-2.74
2022-12-19T03:40:28.542Z,-2.8
2022-12-19T03:50:39.215Z,-2.74
2022-12-19T03:55:41.505Z,-2.73
2022-12-19T04:00:44.530Z,-2.74
2022-12-19T04:05:50.176Z,-2.78
2022-12-19T04:10:52.523Z,-2.79
2022-12-19T04:15:55.307Z,-2.76
2022-12-19T04:20:58.235Z,-2.8
2022-12-19T04:26:00.506Z,-2.8
2022-12-19T04:31:02.677Z,-2.81
2022-12-19T04:41:08.278Z,-2.74
2022-12-19T04:46:10.776Z,-2.73
2022-12-19T04:51:17.589Z,-2.73
2022-12-19T04:56:21.033Z,-2.72
2022-12-19T05:01:28.779Z,-2.77
2022-12-19T05:11:34.402Z,-2.79
2022-12-19T05:16:37.083Z,-2.76
2022-12-19T05:21:39.720Z,-2.77
2022-12-19T05:26:42.446Z,-2.78
2022-12-19T05:31:45.093Z,-2.72
2022-12-19T05:36:47.726Z,-2.64
2022-12-19T05:41:54.296Z,-2.48
2022-12-19T05:46:57.217Z,-2.39
2022-12-19T05:51:59.690Z,-2.38
2022-12-19T05:57:02.466Z,-2.3
2022-12-19T06:02:04.970Z,-2.3
2022-12-19T06:07:07.279Z,-2.21
2022-12-19T06:12:10.261Z,-2.19
2022-12-19T06:22:15.158Z,-2.04
2022-12-19T06:27:18.080Z,-1.94
2022-12-19T06:32:20.584Z,-1.91
2022-12-19T06:37:23.313Z,-1.83
2022-12-19T06:42:26.356Z,-1.78
2022-12-19T06:47:28.724Z,-1.75
2022-12-19T06:52:31.338Z,-1.67
2022-12-19T07:03:04.318Z,-1.48
2022-12-19T07:08:06.581Z,-1.4
2022-12-19T07:13:08.933Z,-1.41
2022-12-19T07:18:11.706Z,-1.33
2022-12-19T07:23:14.348Z,-1.18
2022-12-19T07:28:16.939Z,-1.18
2022-12-19T07:33:21.561Z,-1.16
2022-12-19T07:38:21.999Z,-1.06
2022-12-19T07:43:24.734Z,-0.74
2022-12-19T07:48:27.610Z,-0.77
2022-12-19T07:53:30.198Z,-0.82
2022-12-19T07:58:32.817Z,-0.84
2022-12-19T08:03:35.692Z,-0.7
2022-12-19T08:08:38.001Z,-0.56
2022-12-19T08:13:46.114Z,-0.56
2022-12-19T08:18:43.143Z,-0.38
2022-12-19T08:23:45.892Z,-0.29
2022-12-19T08:28:48.613Z,-0.16
2022-12-19T08:33:51.392Z,-0.16
2022-12-19T08:38:53.919Z,-0.05
2022-12-19T08:43:56.499Z,0
2022-12-19T08:48:59.257Z,0.23
2022-12-19T08:54:01.663Z,0.35
2022-12-19T08:59:04.263Z,0.21
2022-12-19T09:04:24.778Z,0.33
2022-12-19T09:09:09.570Z,0.29
2022-12-19T09:19:14.717Z,0.53
2022-12-19T09:49:30.862Z,1.09
2022-12-19T10:04:39.247Z,1.68
2022-12-19T10:10:33.840Z,1.58
2022-12-19T10:19:47.381Z,1.92
2022-12-19T10:29:52.968Z,1.96
2022-12-19T10:34:55.796Z,2.1
2022-12-19T10:39:58.203Z,2.15
2022-12-19T10:50:09.150Z,2.43
2022-12-19T10:55:15.083Z,2.43
2022-12-19T11:00:17.908Z,2.53
2022-12-19T11:10:42.722Z,2.48
2022-12-19T11:17:05.870Z,2.59
2022-12-19T11:23:34.089Z,2.57
2022-12-19T11:30:21.634Z,2.5
2022-12-19T11:40:46.660Z,2.41
2022-12-19T11:45:43.426Z,2.37
2022-12-19T11:50:45.955Z,2.36
2022-12-19T11:55:48.645Z,2.39
2022-12-19T12:00:51.141Z,2.4
2022-12-19T12:05:53.977Z,2.52
2022-12-19T12:13:36.848Z,2.47
2022-12-19T12:21:36.930Z,2.53
2022-12-19T12:29:35.339Z,2.56
2022-12-19T12:31:32.945Z,2.55
2022-12-19T12:37:46.020Z,2.54
2022-12-19T12:41:12.202Z,2.6
2022-12-19T12:46:15.119Z,2.57
2022-12-19T12:51:17.569Z,2.53
2022-12-19T12:56:20.201Z,2.57
2022-12-19T13:01:22.822Z,2.55
2022-12-19T13:06:25.379Z,2.51
2022-12-19T13:11:28.152Z,2.62
2022-12-19T13:16:30.857Z,2.61
2022-12-19T13:21:33.466Z,2.6
2022-12-19T13:26:36.204Z,2.66
2022-12-19T13:31:39.539Z,2.7
2022-12-19T13:38:47.834Z,2.7
2022-12-19T13:41:44.688Z,2.69
2022-12-19T13:46:47.338Z,2.71
2022-12-19T13:51:49.904Z,2.73
2022-12-19T13:56:52.590Z,2.77
2022-12-19T14:01:55.318Z,2.78
2022-12-19T14:06:57.780Z,2.8
2022-12-19T14:12:23.041Z,2.81
2022-12-19T14:17:06.525Z,2.84
2022-12-19T14:22:14.611Z,2.86
2022-12-19T14:28:16.565Z,2.9
2022-12-19T14:32:42.004Z,2.94
2022-12-19T14:37:17.320Z,2.99
2022-12-19T14:42:20.589Z,2.99
2022-12-19T14:51:29.135Z,3.07
2022-12-19T14:54:20.465Z,3.05
2022-12-19T14:57:50.753Z,3.15
2022-12-19T15:02:32.381Z,3.21
2022-12-19T15:07:33.849Z,3.26
2022-12-19T15:13:47.352Z,3.34
2022-12-19T15:17:38.664Z,3.35
2022-12-19T15:22:40.967Z,3.41
2022-12-19T15:27:47.940Z,3.45
2022-12-19T15:32:50.538Z,3.49
2022-12-19T15:37:55.017Z,3.52
2022-12-19T15:42:57.513Z,3.54
2022-12-19T15:48:00.228Z,3.57
2022-12-19T15:53:02.833Z,3.57
2022-12-19T15:58:06.464Z,3.64
2022-12-19T16:03:25.740Z,3.7
2022-12-19T16:08:12.204Z,3.68
2022-12-19T16:13:14.898Z,3.71
2022-12-19T16:18:17.431Z,3.76
2022-12-19T16:23:20.361Z,3.83
2022-12-19T16:28:23.150Z,3.85
2022-12-19T16:33:25.776Z,3.92
2022-12-19T16:38:28.415Z,3.95
2022-12-19T16:43:31.193Z,4.02
2022-12-19T16:48:34.016Z,4.03
2022-12-19T16:53:36.472Z,4.03
2022-12-19T17:03:41.995Z,4.14
2022-12-19T17:13:47.274Z,4.21
2022-12-19T17:18:49.803Z,4.24
2022-12-19T17:23:52.525Z,4.25
2022-12-19T17:28:55.139Z,4.27
2022-12-19T17:33:58.260Z,4.29
2022-12-19T17:39:00.536Z,4.35
2022-12-19T17:44:03.357Z,4.38
2022-12-19T17:49:05.966Z,4.41
2022-12-19T17:54:08.507Z,4.48
2022-12-19T17:59:12.075Z,4.49
2022-12-19T18:04:14.807Z,4.5
2022-12-19T18:09:17.367Z,4.52
2022-12-19T18:14:20.184Z,4.56
2022-12-19T18:19:27.844Z,4.6
2022-12-19T18:24:30.537Z,4.66
2022-12-19T18:29:34.009Z,4.69
2022-12-19T18:34:36.741Z,4.72
2022-12-19T18:39:43.147Z,4.73
2022-12-19T18:44:45.935Z,4.78
2022-12-19T18:49:49.229Z,4.82
2022-12-19T18:54:51.918Z,4.92
2022-12-19T18:59:59.713Z,4.9
2022-12-19T19:05:07.155Z,4.92
2022-12-19T19:10:09.775Z,4.96
2022-12-19T19:15:12.416Z,4.99
2022-12-19T19:20:15.036Z,4.99
2022-12-19T19:25:17.459Z,4.98
2022-12-19T19:30:24.379Z,4.99
2022-12-19T19:35:27.197Z,5
2022-12-19T19:40:29.740Z,4.93
2022-12-19T19:45:33.729Z,4.91
2022-12-19T19:50:34.955Z,4.94
2022-12-19T19:55:37.625Z,4.92
2022-12-19T20:00:40.305Z,4.94
2022-12-19T20:05:43.155Z,4.9
2022-12-19T20:10:45.588Z,4.86
2022-12-19T20:15:50.025Z,4.83
2022-12-19T20:20:50.650Z,4.81
2022-12-19T20:25:53.217Z,4.79
2022-12-19T20:30:55.857Z,4.76
2022-12-19T20:41:28.830Z,4.75
2022-12-19T20:46:31.971Z,4.68
2022-12-19T20:51:34.524Z,4.69
2022-12-19T20:56:37.165Z,4.62
2022-12-19T21:01:39.935Z,4.65
2022-12-19T21:06:42.570Z,4.6
2022-12-19T21:11:45.404Z,4.51
2022-12-19T21:16:47.891Z,4.52
2022-12-19T21:21:50.622Z,4.48
2022-12-19T21:26:57.905Z,4.41
2022-12-19T21:36:59.355Z,4.35
2022-12-19T21:42:02.362Z,4.33
2022-12-19T21:47:05.077Z,4.21
2022-12-19T21:52:07.787Z,4.3
2022-12-19T21:57:10.492Z,4.38
2022-12-19T22:02:13.312Z,4.45
2022-12-19T22:07:16.060Z,4.53
2022-12-19T22:12:18.822Z,4.54
2022-12-19T22:17:21.551Z,4.55
2022-12-19T22:22:24.151Z,4.58
2022-12-19T22:27:26.985Z,4.63
2022-12-19T22:32:29.759Z,4.59
2022-12-19T22:37:32.250Z,4.63
2022-12-19T22:42:35.091Z,4.61
2022-12-19T22:47:37.853Z,4.66
2022-12-19T22:52:40.410Z,4.7
2022-12-19T22:57:43.138Z,4.72
2022-12-19T23:02:49.495Z,4.75
2022-12-19T23:07:53.224Z,4.73
2022-12-19T23:12:55.962Z,4.8
2022-12-19T23:17:58.506Z,4.81
2022-12-19T23:23:01.114Z,4.84
2022-12-19T23:28:04.006Z,4.84
2022-12-19T23:33:06.667Z,4.87
2022-12-19T23:38:08.998Z,4.91
2022-12-19T23:43:11.553Z,4.91
2022-12-19T23:48:13.991Z,4.89
2022-12-19T23:53:16.385Z,4.91
2022-12-19T23:58:24.139Z,4.92
